Time;durP1;ratioP1;P1;durP2;ratioP2;P2;SDS_P1;SDS_P2;PMS_P1;PMS_P2;Temp;Humidity;BMP_temperature;BMP_pressure;BME280_temperature;BME280_humidity;BME280_pressure;Samples;Min_cycle;Max_cycle;Signal;HPM_P1;HPM_P2
2023/06/01 00:00:56;;;;;;;8.13;5.80;;;18.20;47.60;;;;;;4982799;28;115652;-78
2023/06/01 00:03:25;;;;;;;10.25;5.75;;;18.30;47.80;;;;;;4981640;28;116024;-78
2023/06/01 00:05:52;;;;;;;10.32;5.53;;;18.30;47.70;;;;;;4981117;28;114668;-78
2023/06/01 00:08:22;;;;;;;10.05;5.93;;;18.30;47.40;;;;;;4982914;28;114448;-78
2023/06/01 00:10:49;;;;;;;10.25;5.97;;;18.30;47.40;;;;;;4983420;28;114580;-79
2023/06/01 00:13:16;;;;;;;8.27;5.43;;;18.20;47.20;;;;;;4997835;28;115076;-79
2023/06/01 00:15:43;;;;;;;9.02;5.40;;;18.20;47.70;;;;;;4985776;28;114662;-79
2023/06/01 00:18:12;;;;;;;8.75;4.80;;;18.20;47.80;;;;;;4986542;28;114199;-79
2023/06/01 00:20:40;;;;;;;9.10;6.07;;;18.20;47.60;;;;;;4994589;28;114818;-79
2023/06/01 00:23:08;;;;;;;8.77;5.30;;;18.20;47.50;;;;;;4990827;28;115306;-80
2023/06/01 00:25:36;;;;;;;11.25;5.75;;;18.20;47.70;;;;;;4984214;28;114923;-80
2023/06/01 00:28:05;;;;;;;10.05;5.40;;;18.20;47.30;;;;;;5001372;28;114181;-80
2023/06/01 00:30:34;;;;;;;11.00;5.78;;;18.20;47.50;;;;;;4986219;28;114489;-79
2023/06/01 00:33:02;;;;;;;10.48;5.50;;;18.20;47.50;;;;;;4984158;28;116126;-79
2023/06/01 00:35:30;;;;;;;8.25;5.28;;;18.20;47.30;;;;;;4984417;28;115581;-78
2023/06/01 00:37:57;;;;;;;9.32;5.30;;;18.10;47.60;;;;;;4981843;28;117324;-78
2023/06/01 00:40:25;;;;;;;8.32;5.65;;;18.10;47.30;;;;;;5000129;28;115655;-78
2023/06/01 00:42:52;;;;;;;10.32;5.28;;;18.10;47.70;;;;;;4995777;28;116121;-78
2023/06/01 00:45:19;;;;;;;7.75;4.70;;;18.00;47.80;;;;;;5004088;28;114960;-78
2023/06/01 00:47:47;;;;;;;8.23;5.20;;;18.00;48.00;;;;;;4988685;28;114419;-78
2023/06/01 00:50:14;;;;;;;10.48;5.68;;;18.10;47.70;;;;;;5004300;28;114449;-78
2023/06/01 00:52:42;;;;;;;7.82;5.20;;;18.10;47.30;;;;;;4987361;28;115519;-78
2023/06/01 00:55:09;;;;;;;9.32;5.80;;;18.10;47.80;;;;;;4987358;28;114706;-78
2023/06/01 00:57:38;;;;;;;7.93;5.00;;;18.10;47.70;;;;;;4988225;28;114171;-79
2023/06/01 01:00:10;;;;;;;7.93;4.90;;;18.10;47.90;;;;;;4986176;28;116692;-79
2023/06/01 01:02:38;;;;;;;7.22;5.15;;;18.10;48.00;;;;;;4999725;28;115119;-79
2023/06/01 01:05:12;;;;;;;9.05;5.20;;;18.00;47.70;;;;;;4984857;28;114926;-78
2023/06/01 01:07:59;;;;;;;8.32;5.43;;;18.10;48.00;;;;;;4999825;28;114405;-78
2023/06/01 01:10:38;;;;;;;9.23;5.63;;;18.10;47.70;;;;;;4983687;28;114241;-79
2023/06/01 01:13:27;;;;;;;9.20;4.95;;;18.00;47.50;;;;;;4966923;28;115256;-79
2023/06/01 01:15:58;;;;;;;7.93;4.95;;;18.10;47.90;;;;;;4983938;28;114636;-79
2023/06/01 01:18:40;;;;;;;8.35;5.20;;;18.10;47.90;;;;;;4966156;28;114594;-79
2023/06/01 01:21:22;;;;;;;8.02;5.25;;;18.10;48.00;;;;;;4984563;28;114524;-79
2023/06/01 01:24:31;;;;;;;7.57;5.03;;;18.10;48.10;;;;;;4982224;28;114905;-79
2023/06/01 01:27:14;;;;;;;8.82;4.97;;;18.10;47.50;;;;;;4942773;28;114961;-79
2023/06/01 01:29:42;;;;;;;11.83;5.30;;;18.00;47.90;;;;;;4964054;28;114415;-80
2023/06/01 01:32:09;;;;;;;7.28;5.00;;;18.00;47.90;;;;;;4948585;28;120377;-80
2023/06/01 01:34:36;;;;;;;6.68;4.63;;;18.00;47.80;;;;;;4998604;28;115298;-79
2023/06/01 01:37:03;;;;;;;7.88;5.20;;;18.00;48.00;;;;;;4965287;28;114852;-79
2023/06/01 01:39:30;;;;;;;6.88;4.68;;;18.00;47.50;;;;;;4999716;28;114564;-79
2023/06/01 01:41:57;;;;;;;6.88;4.72;;;18.00;48.10;;;;;;5005720;28;114719;-79
2023/06/01 01:44:26;;;;;;;10.15;5.00;;;18.00;48.00;;;;;;4986029;28;114694;-79
2023/06/01 01:46:59;;;;;;;7.60;4.70;;;18.00;47.90;;;;;;4949882;28;115302;-80
2023/06/01 01:49:28;;;;;;;8.63;4.73;;;18.00;48.20;;;;;;4976956;28;114608;-79
2023/06/01 01:52:19;;;;;;;7.78;4.78;;;17.90;47.90;;;;;;5002890;28;114327;-79
2023/06/01 01:54:47;;;;;;;8.15;5.20;;;18.00;47.70;;;;;;4970376;28;114937;-79
2023/06/01 01:57:14;;;;;;;9.05;4.65;;;17.90;47.80;;;;;;4985793;28;115422;-79
2023/06/01 01:59:42;;;;;;;9.35;4.75;;;17.90;47.70;;;;;;4969607;28;116607;-79
2023/06/01 02:02:10;;;;;;;8.63;4.50;;;17.80;47.90;;;;;;4959259;28;114404;-79
2023/06/01 02:04:41;;;;;;;7.15;4.50;;;17.80;48.30;;;;;;4983213;28;116985;-79
2023/06/01 02:07:09;;;;;;;9.00;5.28;;;17.80;48.10;;;;;;4979363;28;118288;-80
2023/06/01 02:09:36;;;;;;;7.43;4.57;;;17.80;48.20;;;;;;4978540;28;116261;-79
2023/06/01 02:12:06;;;;;;;7.88;4.45;;;17.80;48.10;;;;;;5002584;28;114697;-79
2023/06/01 02:14:34;;;;;;;7.25;4.78;;;17.80;48.30;;;;;;5001607;28;114831;-79
2023/06/01 02:17:02;;;;;;;6.90;4.30;;;17.80;48.20;;;;;;5003442;28;115152;-79
2023/06/01 02:19:29;;;;;;;8.43;4.68;;;17.80;48.00;;;;;;4986422;28;114410;-79
2023/06/01 02:21:57;;;;;;;6.50;4.35;;;17.80;48.10;;;;;;5012325;28;114188;-79
2023/06/01 02:24:25;;;;;;;7.80;4.78;;;17.70;48.40;;;;;;5004553;28;115076;-79
2023/06/01 02:26:53;;;;;;;8.98;4.47;;;17.70;48.20;;;;;;4993453;28;115584;-79
2023/06/01 02:29:22;;;;;;;6.57;4.60;;;17.80;48.10;;;;;;4982566;28;114121;-79
2023/06/01 02:31:50;;;;;;;6.38;4.60;;;17.80;48.10;;;;;;4979805;28;114391;-79
2023/06/01 02:34:23;;;;;;;8.45;4.65;;;17.70;48.40;;;;;;4973504;28;115510;-79
2023/06/01 02:36:58;;;;;;;7.22;4.70;;;17.70;47.80;;;;;;4985586;28;115618;-79
2023/06/01 02:39:25;;;;;;;6.72;4.20;;;17.70;47.90;;;;;;5002149;28;114076;-79
2023/06/01 02:41:53;;;;;;;8.48;5.10;;;17.70;48.40;;;;;;5019803;28;114314;-79
2023/06/01 02:44:21;;;;;;;8.23;4.80;;;17.70;48.10;;;;;;5001882;28;116196;-79
2023/06/01 02:46:48;;;;;;;8.02;4.50;;;17.70;47.40;;;;;;5003126;28;115511;-79
2023/06/01 02:49:16;;;;;;;6.70;4.47;;;17.70;47.40;;;;;;5001802;28;114636;-79
2023/06/01 02:51:44;;;;;;;8.60;4.80;;;17.70;47.40;;;;;;5001580;28;114628;-79
2023/06/01 02:54:17;;;;;;;7.80;4.53;;;17.70;48.00;;;;;;5001624;28;114935;-79
2023/06/01 02:56:44;;;;;;;6.80;4.28;;;17.70;48.00;;;;;;4985013;28;116817;-79
2023/06/01 02:59:30;;;;;;;8.55;4.60;;;17.80;47.90;;;;;;5002351;28;114292;-79
2023/06/01 03:02:01;;;;;;;6.97;4.00;;;17.80;47.40;;;;;;5002602;28;114188;-79
2023/06/01 03:04:32;;;;;;;8.35;4.85;;;17.70;47.60;;;;;;5001469;28;115094;-79
2023/06/01 03:07:01;;;;;;;8.85;4.95;;;17.70;47.80;;;;;;4990740;28;114610;-79
2023/06/01 03:09:28;;;;;;;9.18;4.63;;;17.70;47.80;;;;;;4983644;28;115795;-79
2023/06/01 03:12:00;;;;;;;9.23;4.30;;;17.80;47.50;;;;;;4981874;28;114313;-79
2023/06/01 03:14:29;;;;;;;8.05;4.70;;;17.80;47.50;;;;;;4980960;28;114941;-79
2023/06/01 03:16:56;;;;;;;7.47;4.28;;;17.80;47.40;;;;;;4981375;28;115277;-79
2023/06/01 03:19:25;;;;;;;6.38;4.47;;;17.90;47.30;;;;;;4962331;28;114246;-79
2023/06/01 03:21:58;;;;;;;6.53;4.13;;;18.20;46.90;;;;;;4998562;28;114352;-79
2023/06/01 03:24:27;;;;;;;9.93;4.20;;;18.60;46.70;;;;;;4980859;28;114930;-79
2023/06/01 03:27:01;;;;;;;6.75;4.38;;;19.00;46.00;;;;;;4945775;28;117398;-79
2023/06/01 03:29:33;;;;;;;6.70;4.60;;;19.40;45.40;;;;;;4981892;28;114375;-79
2023/06/01 03:32:00;;;;;;;7.03;4.40;;;19.80;44.50;;;;;;4982207;28;114272;-79
2023/06/01 03:34:28;;;;;;;7.50;4.07;;;20.20;43.60;;;;;;4980528;28;114945;-79
2023/06/01 03:36:56;;;;;;;7.90;4.38;;;20.50;43.10;;;;;;4982123;28;115263;-79
2023/06/01 03:39:23;;;;;;;8.25;4.53;;;20.80;42.20;;;;;;4981096;28;114326;-79
2023/06/01 03:41:53;;;;;;;9.73;4.35;;;21.10;41.90;;;;;;4981869;28;114478;-79
2023/06/01 03:44:21;;;;;;;8.98;5.18;;;21.30;41.60;;;;;;4980733;28;116235;-79
2023/06/01 03:46:49;;;;;;;8.18;4.15;;;21.50;40.60;;;;;;4980363;28;114699;-80
2023/06/01 03:49:16;;;;;;;7.70;4.88;;;21.60;40.60;;;;;;4998462;28;114270;-79
2023/06/01 03:51:44;;;;;;;7.43;4.72;;;21.70;39.60;;;;;;4981293;28;114424;-79
2023/06/01 03:54:12;;;;;;;7.30;4.18;;;21.60;39.60;;;;;;4980524;28;116266;-79
2023/06/01 03:56:40;;;;;;;7.72;4.38;;;21.60;40.20;;;;;;4981105;28;114575;-79
2023/06/01 03:59:07;;;;;;;9.73;5.60;;;21.60;39.70;;;;;;4981539;28;114356;-79
2023/06/01 04:01:36;;;;;;;8.90;5.10;;;21.70;39.30;;;;;;4979886;28;114311;-79
2023/06/01 04:04:08;;;;;;;11.93;6.22;;;21.70;39.80;;;;;;4979993;28;117817;-79
2023/06/01 04:06:36;;;;;;;10.57;5.50;;;21.70;39.40;;;;;;4980656;28;115108;-79
2023/06/01 04:09:06;;;;;;;10.82;6.22;;;21.60;39.50;;;;;;4981062;28;114574;-79
2023/06/01 04:11:35;;;;;;;10.15;6.03;;;21.60;39.30;;;;;;4993407;28;115774;-79
2023/06/01 04:14:02;;;;;;;12.38;6.28;;;21.50;39.40;;;;;;4978601;28;115651;-79
2023/06/01 04:16:29;;;;;;;12.68;6.18;;;21.50;39.30;;;;;;4979972;28;114721;-79
2023/06/01 04:18:57;;;;;;;10.35;5.50;;;21.50;39.40;;;;;;4999221;28;114360;-80
2023/06/01 04:21:32;;;;;;;11.98;6.30;;;21.40;39.60;;;;;;4990402;28;114352;-79
2023/06/01 04:24:00;;;;;;;10.05;5.55;;;21.30;39.40;;;;;;4997126;28;114937;-79
2023/06/01 04:26:27;;;;;;;13.05;6.35;;;21.30;40.00;;;;;;4980449;28;115197;-79
2023/06/01 04:28:56;;;;;;;12.60;5.85;;;21.20;39.20;;;;;;4981566;28;114256;-79
2023/06/01 04:31:24;;;;;;;7.93;5.05;;;21.00;39.60;;;;;;4980717;28;115757;-79
2023/06/01 04:33:56;;;;;;;10.05;5.63;;;20.90;40.30;;;;;;4996140;28;114933;-79
2023/06/01 04:36:25;;;;;;;13.65;6.40;;;20.70;40.30;;;;;;4979955;28;114722;-80
2023/06/01 04:38:57;;;;;;;9.10;6.03;;;20.70;40.10;;;;;;4980626;28;114292;-79
2023/06/01 04:41:28;;;;;;;13.35;5.72;;;20.70;40.60;;;;;;4996946;28;114538;-79
2023/06/01 04:43:58;;;;;;;15.07;6.17;;;20.70;40.60;;;;;;4995982;28;117032;-79
2023/06/01 04:46:27;;;;;;;12.77;6.35;;;20.70;40.20;;;;;;5008382;28;114763;-79
2023/06/01 04:48:59;;;;;;;15.88;7.38;;;20.70;40.20;;;;;;4984669;28;114595;-78
2023/06/01 04:51:28;;;;;;;18.42;6.53;;;20.70;40.50;;;;;;4999364;28;114523;-79
2023/06/01 04:53:56;;;;;;;13.45;6.28;;;20.70;40.30;;;;;;4998855;28;116036;-79
2023/06/01 04:56:27;;;;;;;15.38;6.25;;;20.70;40.30;;;;;;4999768;28;114501;-79
2023/06/01 04:58:54;;;;;;;13.45;6.43;;;20.70;40.60;;;;;;5001422;28;114274;-78
2023/06/01 05:01:24;;;;;;;10.85;5.82;;;20.80;40.20;;;;;;5020394;28;114489;-78
2023/06/01 05:03:53;;;;;;;14.23;6.07;;;20.80;40.40;;;;;;4986137;28;115269;-79
2023/06/01 05:06:21;;;;;;;11.50;6.13;;;20.80;40.60;;;;;;4970066;28;114663;-79
2023/06/01 05:08:48;;;;;;;14.05;6.18;;;20.80;40.40;;;;;;4998856;28;114574;-79
2023/06/01 05:11:16;;;;;;;11.98;5.93;;;20.90;40.10;;;;;;4967132;28;114702;-79
2023/06/01 05:13:44;;;;;;;11.93;6.22;;;21.00;40.40;;;;;;4996829;28;114984;-79
2023/06/01 05:16:11;;;;;;;14.65;6.55;;;21.10;40.40;;;;;;4982997;28;114838;-79
2023/06/01 05:18:40;;;;;;;16.90;7.10;;;21.30;40.00;;;;;;5001524;28;114271;-79
2023/06/01 05:21:08;;;;;;;16.17;6.85;;;21.30;39.60;;;;;;4970293;28;116065;-78
2023/06/01 05:23:35;;;;;;;15.20;7.00;;;21.40;39.90;;;;;;4985951;28;117842;-79
2023/06/01 05:26:05;;;;;;;14.98;7.50;;;21.50;39.80;;;;;;5002661;28;114647;-78
2023/06/01 05:28:35;;;;;;;13.60;6.85;;;21.70;39.30;;;;;;5002827;28;114546;-78
2023/06/01 05:31:09;;;;;;;11.32;7.00;;;21.80;39.10;;;;;;4983987;28;115195;-79
2023/06/01 05:33:43;;;;;;;12.30;6.80;;;21.80;39.40;;;;;;4998916;28;117407;-78
2023/06/01 05:36:10;;;;;;;16.83;6.75;;;22.00;39.00;;;;;;4982648;28;114722;-78
2023/06/01 05:38:38;;;;;;;14.65;6.72;;;22.10;38.50;;;;;;4999604;28;114619;-78
2023/06/01 05:41:06;;;;;;;17.17;8.00;;;22.10;38.70;;;;;;4963383;28;114527;-78
2023/06/01 05:43:36;;;;;;;13.05;5.97;;;22.10;38.50;;;;;;5007848;28;115010;-78
2023/06/01 05:46:06;;;;;;;12.23;7.05;;;22.20;38.10;;;;;;5002564;28;114657;-78
2023/06/01 05:48:34;;;;;;;17.55;7.07;;;22.30;38.00;;;;;;5003988;28;114332;-78
2023/06/01 05:51:05;;;;;;;19.73;7.63;;;22.40;38.10;;;;;;4969746;28;114450;-79
2023/06/01 05:53:32;;;;;;;15.70;7.60;;;22.50;38.10;;;;;;5002012;28;115119;-79
2023/06/01 05:55:59;;;;;;;21.58;8.27;;;22.60;38.20;;;;;;5002195;28;114798;-79
2023/06/01 05:58:26;;;;;;;20.73;8.93;;;22.80;37.70;;;;;;4986043;28;114148;-79
2023/06/01 06:00:53;;;;;;;25.85;8.60;;;22.80;37.60;;;;;;5002985;28;114835;-79
2023/06/01 06:03:23;;;;;;;21.42;8.65;;;22.90;37.70;;;;;;5003127;28;115400;-79
2023/06/01 06:05:50;;;;;;;21.10;9.85;;;23.10;37.80;;;;;;5001556;28;115094;-79
2023/06/01 06:08:17;;;;;;;20.85;10.15;;;23.30;37.30;;;;;;5002085;28;114330;-80
2023/06/01 06:10:45;;;;;;;20.30;9.35;;;23.50;36.90;;;;;;5019196;27;114385;-79
2023/06/01 06:13:14;;;;;;;20.05;8.43;;;23.60;36.60;;;;;;5003036;28;114954;-79
2023/06/01 06:15:41;;;;;;;24.02;10.50;;;23.60;37.10;;;;;;5002836;28;116201;-79
2023/06/01 06:18:08;;;;;;;22.63;8.70;;;23.70;36.40;;;;;;5019013;28;114128;-79
2023/06/01 06:20:36;;;;;;;19.15;8.73;;;23.80;36.10;;;;;;5029886;28;114565;-79
2023/06/01 06:23:03;;;;;;;18.58;7.80;;;23.80;36.20;;;;;;5006335;28;114217;-79
2023/06/01 06:25:31;;;;;;;18.88;8.60;;;23.90;36.00;;;;;;5003587;28;114645;-79
2023/06/01 06:27:58;;;;;;;17.80;8.25;;;24.00;35.70;;;;;;5003552;28;114574;-79
2023/06/01 06:30:26;;;;;;;17.05;8.25;;;24.20;35.90;;;;;;4998860;28;117051;-79
2023/06/01 06:32:54;;;;;;;18.25;7.60;;;24.30;35.80;;;;;;4982031;28;115547;-79
2023/06/01 06:35:21;;;;;;;16.88;7.70;;;24.30;34.90;;;;;;5001101;28;116833;-78
2023/06/01 06:37:49;;;;;;;17.08;7.32;;;24.40;35.30;;;;;;4997722;28;114447;-79
2023/06/01 06:40:17;;;;;;;18.98;6.47;;;24.60;35.00;;;;;;5003009;28;114480;-78
2023/06/01 06:42:46;;;;;;;15.77;7.10;;;24.70;34.70;;;;;;5000928;28;114877;-79
2023/06/01 06:45:13;;;;;;;13.77;6.57;;;24.80;34.60;;;;;;4993929;28;114879;-78
2023/06/01 06:47:41;;;;;;;12.63;5.80;;;24.80;34.20;;;;;;4990679;28;115511;-78
2023/06/01 06:50:09;;;;;;;13.13;5.95;;;24.90;33.70;;;;;;4998231;28;114428;-78
2023/06/01 06:52:36;;;;;;;12.48;6.38;;;24.80;34.00;;;;;;4996483;28;114977;-79
2023/06/01 06:55:03;;;;;;;11.75;5.80;;;24.80;34.30;;;;;;4978197;28;114677;-78
2023/06/01 06:57:31;;;;;;;12.70;6.05;;;24.90;34.40;;;;;;4981299;28;114288;-78
2023/06/01 06:59:58;;;;;;;15.63;6.20;;;24.90;34.20;;;;;;4982819;28;114303;-78
2023/06/01 07:02:26;;;;;;;13.35;5.47;;;25.00;34.50;;;;;;4982146;28;115570;-78
2023/06/01 07:04:54;;;;;;;14.73;5.47;;;25.00;33.90;;;;;;4982339;28;114640;-78
2023/06/01 07:07:21;;;;;;;13.48;5.50;;;24.90;33.70;;;;;;4983002;28;114247;-78
2023/06/01 07:09:53;;;;;;;10.40;5.60;;;24.90;34.10;;;;;;4982761;28;115296;-79
2023/06/01 07:12:20;;;;;;;9.65;4.90;;;25.00;34.30;;;;;;4996641;28;117642;-78
2023/06/01 07:14:47;;;;;;;15.30;6.28;;;25.00;34.00;;;;;;4999760;28;114735;-78
2023/06/01 07:17:16;;;;;;;9.27;4.80;;;25.10;33.90;;;;;;4981382;28;115091;-78
2023/06/01 07:19:43;;;;;;;13.02;5.75;;;25.20;34.00;;;;;;4988473;28;115106;-79
2023/06/01 07:22:13;;;;;;;10.60;5.63;;;25.30;33.80;;;;;;5000936;28;115381;-79
2023/06/01 07:24:45;;;;;;;20.85;7.25;;;25.20;34.00;;;;;;4984990;28;114639;-78
2023/06/01 07:27:16;;;;;;;13.25;5.30;;;25.10;33.90;;;;;;5018050;28;114376;-79
2023/06/01 07:29:46;;;;;;;12.15;5.60;;;25.10;33.70;;;;;;4984240;28;114591;-79
2023/06/01 07:32:13;;;;;;;12.07;4.80;;;25.00;33.60;;;;;;4981137;28;115108;-82
2023/06/01 07:34:46;;;;;;;10.07;4.90;;;25.00;33.90;;;;;;4996334;28;114652;-78
2023/06/01 07:37:21;;;;;;;10.93;4.57;;;25.00;34.00;;;;;;4982439;28;114208;-79
2023/06/01 07:39:55;;;;;;;11.60;5.43;;;25.00;34.00;;;;;;4998039;28;114226;-79
2023/06/01 07:42:22;;;;;;;8.80;4.63;;;25.00;33.90;;;;;;4980635;28;115062;-79
2023/06/01 07:49:03;;;;;;;11.00;3.90;;;25.20;33.80;;;;;;4990478;28;114517;-78
2023/06/01 07:51:39;;;;;;;9.00;4.70;;;25.00;33.70;;;;;;5000126;28;114416;-79
2023/06/01 07:54:10;;;;;;;7.10;3.92;;;25.00;33.10;;;;;;4984413;28;115524;-79
2023/06/01 07:56:39;;;;;;;6.80;3.15;;;25.00;31.80;;;;;;4984338;28;114666;-79
2023/06/01 07:59:10;;;;;;;8.18;3.13;;;25.00;31.10;;;;;;4984958;28;114560;-79
2023/06/01 08:01:40;;;;;;;8.70;3.72;;;25.00;30.40;;;;;;5002092;28;114351;-79
2023/06/01 08:04:10;;;;;;;10.98;3.60;;;25.00;32.10;;;;;;5000318;28;114993;-79
2023/06/01 08:06:38;;;;;;;8.32;3.10;;;25.20;31.50;;;;;;5002013;28;114657;-79
2023/06/01 08:09:46;;;;;;;6.35;2.85;;;25.30;29.60;;;;;;4989381;28;114497;-79
2023/06/01 08:12:16;;;;;;;7.18;3.58;;;25.30;29.70;;;;;;5004622;28;114301;-78
2023/06/01 08:14:44;;;;;;;8.13;3.30;;;25.30;29.40;;;;;;5000781;28;114972;-79
2023/06/01 08:20:13;;;;;;;8.23;3.88;;;25.50;29.60;;;;;;4993522;28;114284;-78
2023/06/01 08:22:43;;;;;;;8.90;4.40;;;25.60;29.90;;;;;;4983004;28;114507;-78
2023/06/01 08:25:17;;;;;;;7.80;3.75;;;25.70;29.00;;;;;;4981294;28;116266;-78
2023/06/01 08:27:49;;;;;;;7.22;3.50;;;25.70;29.70;;;;;;4995800;28;115209;-78
2023/06/01 08:30:27;;;;;;;7.85;3.42;;;25.80;30.10;;;;;;4981912;28;114409;-78
2023/06/01 08:32:57;;;;;;;7.47;3.40;;;25.80;30.50;;;;;;4982400;28;114147;-78
2023/06/01 08:35:30;;;;;;;7.40;3.13;;;25.80;30.80;;;;;;4998787;28;115026;-78
2023/06/01 08:38:00;;;;;;;7.00;3.60;;;25.80;29.30;;;;;;5012367;28;115318;-78
2023/06/01 08:40:40;;;;;;;10.32;3.85;;;25.80;27.80;;;;;;5003397;28;114263;-78
2023/06/01 08:43:21;;;;;;;9.80;3.35;;;25.80;28.30;;;;;;5001534;28;114579;-79
2023/06/01 08:45:49;;;;;;;7.15;2.85;;;25.90;29.00;;;;;;4999179;28;115464;-79
2023/06/01 08:48:19;;;;;;;6.63;3.35;;;26.00;29.30;;;;;;4999299;28;115121;-78
2023/06/01 08:50:53;;;;;;;6.80;3.45;;;26.00;29.60;;;;;;4999150;28;114221;-78
2023/06/01 08:53:21;;;;;;;6.72;3.15;;;25.80;29.80;;;;;;4985068;28;114226;-78
2023/06/01 08:56:03;;;;;;;6.93;3.05;;;25.80;30.20;;;;;;4983168;28;114943;-79
2023/06/01 08:58:35;;;;;;;6.75;3.08;;;25.80;30.00;;;;;;4999472;28;114835;-78
2023/06/01 09:01:07;;;;;;;10.32;3.50;;;25.70;30.70;;;;;;4999608;28;117856;-78
2023/06/01 09:03:37;;;;;;;5.60;2.83;;;25.70;30.00;;;;;;4999476;28;114376;-79
2023/06/01 09:06:07;;;;;;;8.55;3.58;;;25.80;29.60;;;;;;4999094;28;114924;-78
2023/06/01 09:08:35;;;;;;;8.23;3.38;;;25.80;29.50;;;;;;4964249;28;114580;-78
2023/06/01 09:11:08;;;;;;;7.93;3.58;;;25.80;29.20;;;;;;4983788;28;115235;-78
2023/06/01 09:13:37;;;;;;;6.45;3.38;;;25.80;29.10;;;;;;4983314;28;114461;-78
2023/06/01 09:16:04;;;;;;;10.13;3.72;;;25.90;29.00;;;;;;4983557;28;116324;-78
2023/06/01 09:18:31;;;;;;;7.55;3.38;;;25.90;28.60;;;;;;4999430;28;116563;-79
2023/06/01 09:21:12;;;;;;;10.13;3.25;;;25.90;28.50;;;;;;5000562;28;117224;-78
2023/06/01 09:23:39;;;;;;;7.93;3.40;;;25.90;28.90;;;;;;5004697;28;114259;-79
2023/06/01 09:26:08;;;;;;;6.32;3.42;;;25.90;28.60;;;;;;4999944;28;114768;-78
2023/06/01 09:28:55;;;;;;;8.38;4.00;;;25.90;28.30;;;;;;4982421;28;117117;-79
2023/06/01 09:31:45;;;;;;;11.68;3.90;;;25.90;29.10;;;;;;4982115;28;114374;-79
2023/06/01 09:34:19;;;;;;;7.40;3.65;;;25.90;28.30;;;;;;4984610;28;114302;-78
2023/06/01 09:36:50;;;;;;;8.00;3.55;;;25.80;28.10;;;;;;4983863;28;114952;-79
2023/06/01 09:39:19;;;;;;;9.00;3.35;;;25.80;28.70;;;;;;4962855;28;114539;-78
2023/06/01 09:41:54;;;;;;;5.38;3.00;;;25.80;29.20;;;;;;4979039;28;114584;-78
2023/06/01 09:44:36;;;;;;;8.07;3.58;;;25.80;28.30;;;;;;4984079;28;114559;-78
2023/06/01 09:47:14;;;;;;;9.63;3.38;;;25.80;28.80;;;;;;4981878;28;116194;-78
2023/06/01 09:50:02;;;;;;;8.20;3.63;;;25.80;28.90;;;;;;4983930;28;114570;-79
2023/06/01 09:52:42;;;;;;;8.25;3.38;;;25.90;29.10;;;;;;4985016;28;115181;-79
2023/06/01 09:55:10;;;;;;;5.90;3.92;;;25.90;28.90;;;;;;4970061;28;114490;-78
2023/06/01 09:57:37;;;;;;;8.18;3.50;;;25.80;29.10;;;;;;5001757;28;115513;-78
2023/06/01 10:00:08;;;;;;;10.38;3.63;;;25.90;29.00;;;;;;5001961;28;115250;-79
2023/06/01 10:02:35;;;;;;;7.72;3.60;;;25.90;28.60;;;;;;5002939;28;114321;-78
2023/06/01 10:05:03;;;;;;;9.40;3.58;;;25.90;28.70;;;;;;4986492;28;116320;-79
2023/06/01 10:07:31;;;;;;;9.38;3.20;;;25.80;28.60;;;;;;4984594;28;117115;-78
2023/06/01 10:10:02;;;;;;;20.45;3.95;;;25.90;28.70;;;;;;5001728;28;115741;-79
2023/06/01 10:12:29;;;;;;;9.25;3.63;;;25.90;28.70;;;;;;4986546;28;114248;-78
2023/06/01 10:15:03;;;;;;;7.45;3.33;;;25.80;28.70;;;;;;4970782;28;114379;-77
2023/06/01 10:17:50;;;;;;;6.45;3.20;;;25.80;28.70;;;;;;5002222;28;114989;-77
2023/06/01 10:20:18;;;;;;;5.53;3.00;;;25.90;28.90;;;;;;4987020;28;114596;-77
2023/06/01 10:22:45;;;;;;;7.90;3.47;;;26.00;28.60;;;;;;4985740;28;114293;-79
2023/06/01 10:25:13;;;;;;;9.88;3.90;;;26.00;28.80;;;;;;5003886;28;115846;-78
2023/06/01 10:27:58;;;;;;;8.88;3.63;;;26.00;28.50;;;;;;4977488;28;115562;-78
2023/06/01 10:30:25;;;;;;;6.18;3.22;;;26.10;28.70;;;;;;4964112;28;115218;-78
2023/06/01 10:32:54;;;;;;;5.85;3.30;;;26.20;29.20;;;;;;4998995;28;114392;-78
2023/06/01 10:35:28;;;;;;;9.90;3.50;;;26.30;28.30;;;;;;4983100;28;115953;-78
2023/06/01 10:38:12;;;;;;;8.52;3.70;;;26.30;28.40;;;;;;4982252;28;115561;-78
2023/06/01 10:40:40;;;;;;;6.22;3.55;;;26.30;28.80;;;;;;4978933;28;114580;-78
2023/06/01 10:43:25;;;;;;;8.73;3.22;;;26.30;28.70;;;;;;4965747;28;114492;-79
2023/06/01 10:45:52;;;;;;;7.38;3.35;;;26.30;28.30;;;;;;5002030;28;114612;-78
2023/06/01 10:48:20;;;;;;;6.25;3.88;;;26.30;28.30;;;;;;5002257;28;115013;-78
2023/06/01 10:51:21;;;;;;;40.15;6.53;;;26.30;28.50;;;;;;5001005;28;115241;-78
2023/06/01 10:54:27;;;;;;;5.78;3.28;;;26.30;28.90;;;;;;5002186;28;114549;-78
2023/06/01 10:57:17;;;;;;;6.55;3.60;;;26.30;28.70;;;;;;4975146;28;114207;-78
2023/06/01 10:59:44;;;;;;;7.18;3.28;;;26.30;28.90;;;;;;5013094;28;115779;-78
2023/06/01 11:02:15;;;;;;;8.13;3.58;;;26.20;28.50;;;;;;5000857;28;115278;-78
2023/06/01 11:04:45;;;;;;;7.88;3.97;;;26.20;28.60;;;;;;4973038;28;115810;-80
2023/06/01 11:07:35;;;;;;;6.93;4.05;;;26.20;28.80;;;;;;4983851;28;114283;-78
2023/06/01 11:10:05;;;;;;;8.10;3.97;;;26.30;28.80;;;;;;4982220;28;118267;-78
2023/06/01 11:13:10;;;;;;;8.25;3.67;;;26.30;28.90;;;;;;4990101;28;114663;-79
2023/06/01 11:15:40;;;;;;;7.47;3.70;;;26.30;28.90;;;;;;5001220;28;114264;-79
2023/06/01 11:18:41;;;;;;;7.55;3.30;;;26.20;29.00;;;;;;5002808;28;114368;-78
2023/06/01 11:21:24;;;;;;;8.25;3.88;;;26.20;29.30;;;;;;5002302;28;114984;-79
2023/06/01 11:23:53;;;;;;;;;;;26.20;29.10;;;;;;4984800;28;117942;-78
2023/06/01 11:26:32;;;;;;;7.35;3.33;;;26.20;29.80;;;;;;5002822;27;114409;-79
2023/06/01 11:29:05;;;;;;;7.07;3.17;;;26.30;29.60;;;;;;5003084;28;114378;-79
2023/06/01 11:31:57;;;;;;;9.50;2.90;;;26.30;29.00;;;;;;5001100;28;114926;-80
2023/06/01 11:34:34;;;;;;;8.38;3.20;;;26.40;29.30;;;;;;4998229;28;115228;-77
2023/06/01 11:37:02;;;;;;;12.77;3.53;;;26.30;29.10;;;;;;5001735;28;114180;-80
2023/06/01 11:39:31;;;;;;;6.20;3.08;;;26.30;29.40;;;;;;5001487;28;114614;-78
2023/06/01 11:42:06;;;;;;;6.60;3.15;;;26.40;28.70;;;;;;5000674;28;114934;-80
2023/06/01 11:45:04;;;;;;;8.32;3.33;;;26.50;28.90;;;;;;5001602;28;114785;-79
2023/06/01 11:47:35;;;;;;;5.82;3.42;;;26.50;29.00;;;;;;5002651;28;114276;-79
2023/06/01 11:50:02;;;;;;;7.70;3.20;;;26.40;29.00;;;;;;4986487;28;115050;-79
2023/06/01 11:52:30;;;;;;;5.75;3.05;;;26.50;28.80;;;;;;4982699;28;115386;-79
2023/06/01 11:55:04;;;;;;;5.63;3.05;;;26.50;29.00;;;;;;4982338;28;115355;-78
2023/06/01 11:57:31;;;;;;;12.07;3.40;;;26.50;28.40;;;;;;4983255;28;114079;-78
2023/06/01 12:00:30;;;;;;;6.18;3.10;;;26.50;28.80;;;;;;4998542;28;114656;-78
2023/06/01 12:03:06;;;;;;;6.07;2.88;;;26.50;28.50;;;;;;4971989;28;115124;-78
2023/06/01 12:05:48;;;;;;;5.22;3.00;;;26.50;27.90;;;;;;4985088;28;114665;-78
2023/06/01 12:08:20;;;;;;;6.15;3.00;;;26.40;27.70;;;;;;4996657;28;115713;-78
2023/06/01 12:10:48;;;;;;;9.25;3.08;;;26.40;27.70;;;;;;4971432;28;114988;-78
2023/06/01 12:13:15;;;;;;;7.03;2.83;;;26.40;28.10;;;;;;5003597;28;115544;-78
2023/06/01 12:15:44;;;;;;;7.35;2.80;;;26.40;27.90;;;;;;5003482;28;115843;-78
2023/06/01 12:18:11;;;;;;;6.80;2.90;;;26.40;27.80;;;;;;4972695;28;114307;-78
2023/06/01 12:20:43;;;;;;;9.52;3.30;;;26.40;27.40;;;;;;5006476;28;114591;-78
2023/06/01 12:23:12;;;;;;;7.88;3.25;;;26.40;27.00;;;;;;4989895;28;115058;-79
2023/06/01 12:25:51;;;;;;;6.43;2.80;;;26.40;26.20;;;;;;5005554;28;114651;-78
2023/06/01 12:28:19;;;;;;;7.80;3.20;;;26.40;26.80;;;;;;5005374;28;114599;-78
2023/06/01 12:30:47;;;;;;;5.97;3.10;;;26.40;26.50;;;;;;4987893;28;115275;-78
2023/06/01 12:33:35;;;;;;;6.70;3.15;;;26.40;26.50;;;;;;5003895;28;115006;-78
2023/06/01 12:36:07;;;;;;;6.28;2.90;;;26.60;26.60;;;;;;5002189;28;115375;-78
2023/06/01 12:38:38;;;;;;;7.55;3.30;;;26.50;26.00;;;;;;4988024;28;114444;-78
2023/06/01 12:41:09;;;;;;;6.22;2.90;;;26.50;26.10;;;;;;5001053;28;114311;-78
2023/06/01 12:43:36;;;;;;;8.25;3.15;;;26.50;25.80;;;;;;5004199;28;114882;-78
2023/06/01 12:46:06;;;;;;;5.07;2.80;;;26.50;25.20;;;;;;5004721;28;114572;-78
2023/06/01 12:48:35;;;;;;;12.80;3.80;;;26.40;25.20;;;;;;5005172;28;114221;-79
2023/06/01 12:51:05;;;;;;;7.18;3.00;;;26.40;25.30;;;;;;5004007;28;114830;-78
2023/06/01 12:53:32;;;;;;;4.75;2.80;;;26.40;25.30;;;;;;5004581;28;114866;-79
2023/06/01 12:55:59;;;;;;;7.95;3.47;;;26.50;25.50;;;;;;4986158;28;116985;-78
2023/06/01 12:58:31;;;;;;;5.38;3.05;;;26.50;25.50;;;;;;4986286;28;114263;-79
2023/06/01 13:00:59;;;;;;;5.13;2.80;;;26.40;25.10;;;;;;4987675;28;114315;-78